sensor_id;sensor_type;location;lat;lon;timestamp;P1;durP1;ratioP1;P2;durP2;ratioP2
13941;SDS011;7043;51.630;7.254;2023-04-24T00:00:08;2.50;;;0.60;;
13941;SDS011;7043;51.630;7.254;2023-04-24T00:02:34;1.10;;;0.60;;
13941;SDS011;7043;51.630;7.254;2023-04-24T00:05:03;1.27;;;0.70;;
13941;SDS011;7043;51.630;7.254;2023-04-24T00:07:29;0.87;;;0.77;;
13941;SDS011;7043;51.630;7.254;2023-04-24T00:09:55;1.00;;;0.77;;
13941;SDS011;7043;51.630;7.254;2023-04-24T00:12:21;4.37;;;0.87;;
13941;SDS011;7043;51.630;7.254;2023-04-24T00:14:47;0.60;;;0.60;;
13941;SDS011;7043;51.630;7.254;2023-04-24T00:17:13;1.63;;;0.73;;
13941;SDS011;7043;51.630;7.254;2023-04-24T00:19:39;1.00;;;0.70;;
13941;SDS011;7043;51.630;7.254;2023-04-24T00:22:05;0.97;;;0.90;;
13941;SDS011;7043;51.630;7.254;2023-04-24T00:24:31;1.53;;;0.77;;
13941;SDS011;7043;51.630;7.254;2023-04-24T00:26:57;1.43;;;0.63;;
13941;SDS011;7043;51.630;7.254;2023-04-24T00:29:23;1.70;;;0.90;;
13941;SDS011;7043;51.630;7.254;2023-04-24T00:31:49;1.37;;;0.90;;
13941;SDS011;7043;51.630;7.254;2023-04-24T00:34:15;0.80;;;0.70;;
13941;SDS011;7043;51.630;7.254;2023-04-24T00:36:41;1.33;;;0.90;;
13941;SDS011;7043;51.630;7.254;2023-04-24T00:39:07;2.30;;;0.90;;
13941;SDS011;7043;51.630;7.254;2023-04-24T00:41:33;1.40;;;0.80;;
13941;SDS011;7043;51.630;7.254;2023-04-24T00:43:59;1.50;;;1.10;;
13941;SDS011;7043;51.630;7.254;2023-04-24T00:46:25;1.47;;;0.90;;
13941;SDS011;7043;51.630;7.254;2023-04-24T00:48:51;1.20;;;1.10;;
13941;SDS011;7043;51.630;7.254;2023-04-24T00:51:17;1.10;;;1.00;;
13941;SDS011;7043;51.630;7.254;2023-04-24T00:53:43;1.60;;;1.10;;
13941;SDS011;7043;51.630;7.254;2023-04-24T00:56:09;2.30;;;1.27;;
13941;SDS011;7043;51.630;7.254;2023-04-24T00:58:35;1.53;;;1.10;;
13941;SDS011;7043;51.630;7.254;2023-04-24T01:01:02;1.40;;;1.00;;
13941;SDS011;7043;51.630;7.254;2023-04-24T01:03:32;1.00;;;0.90;;
13941;SDS011;7043;51.630;7.254;2023-04-24T01:05:58;1.17;;;0.90;;
13941;SDS011;7043;51.630;7.254;2023-04-24T01:08:24;2.20;;;1.00;;
13941;SDS011;7043;51.630;7.254;2023-04-24T01:10:52;1.10;;;1.00;;
13941;SDS011;7043;51.630;7.254;2023-04-24T01:13:21;1.50;;;1.20;;
13941;SDS011;7043;51.630;7.254;2023-04-24T01:15:47;1.13;;;1.03;;
13941;SDS011;7043;51.630;7.254;2023-04-24T01:18:13;1.40;;;1.10;;
13941;SDS011;7043;51.630;7.254;2023-04-24T01:20:40;1.77;;;1.10;;
13941;SDS011;7043;51.630;7.254;2023-04-24T01:23:07;3.60;;;1.63;;
13941;SDS011;7043;51.630;7.254;2023-04-24T01:25:33;2.10;;;1.20;;
13941;SDS011;7043;51.630;7.254;2023-04-24T01:27:59;2.37;;;1.67;;
13941;SDS011;7043;51.630;7.254;2023-04-24T01:30:26;2.90;;;1.60;;
13941;SDS011;7043;51.630;7.254;2023-04-24T01:32:52;2.20;;;1.53;;
13941;SDS011;7043;51.630;7.254;2023-04-24T01:35:19;1.97;;;1.70;;
13941;SDS011;7043;51.630;7.254;2023-04-24T01:37:45;2.73;;;2.10;;
13941;SDS011;7043;51.630;7.254;2023-04-24T01:40:11;2.47;;;2.27;;
13941;SDS011;7043;51.630;7.254;2023-04-24T01:42:37;3.40;;;2.30;;
13941;SDS011;7043;51.630;7.254;2023-04-24T01:45:03;2.40;;;2.07;;
13941;SDS011;7043;51.630;7.254;2023-04-24T01:47:32;2.63;;;2.23;;
13941;SDS011;7043;51.630;7.254;2023-04-24T01:49:58;3.60;;;2.50;;
13941;SDS011;7043;51.630;7.254;2023-04-24T01:52:24;3.00;;;2.70;;
13941;SDS011;7043;51.630;7.254;2023-04-24T01:54:52;3.40;;;3.10;;
13941;SDS011;7043;51.630;7.254;2023-04-24T01:57:18;4.33;;;4.03;;
13941;SDS011;7043;51.630;7.254;2023-04-24T01:59:44;4.47;;;3.57;;
13941;SDS011;7043;51.630;7.254;2023-04-24T02:02:10;6.30;;;4.37;;
13941;SDS011;7043;51.630;7.254;2023-04-24T02:04:36;5.73;;;5.00;;
13941;SDS011;7043;51.630;7.254;2023-04-24T02:07:02;5.50;;;4.90;;
13941;SDS011;7043;51.630;7.254;2023-04-24T02:09:28;4.93;;;4.20;;
13941;SDS011;7043;51.630;7.254;2023-04-24T02:11:53;6.10;;;4.73;;
13941;SDS011;7043;51.630;7.254;2023-04-24T02:14:21;5.00;;;4.50;;
13941;SDS011;7043;51.630;7.254;2023-04-24T02:16:47;4.70;;;4.20;;
13941;SDS011;7043;51.630;7.254;2023-04-24T02:19:13;4.47;;;4.07;;
13941;SDS011;7043;51.630;7.254;2023-04-24T02:21:39;5.27;;;3.90;;
13941;SDS011;7043;51.630;7.254;2023-04-24T02:24:05;4.53;;;4.13;;
13941;SDS011;7043;51.630;7.254;2023-04-24T02:26:31;4.83;;;4.33;;
13941;SDS011;7043;51.630;7.254;2023-04-24T02:28:57;5.07;;;4.50;;
13941;SDS011;7043;51.630;7.254;2023-04-24T02:31:23;5.27;;;4.70;;
13941;SDS011;7043;51.630;7.254;2023-04-24T02:33:49;4.83;;;4.33;;
13941;SDS011;7043;51.630;7.254;2023-04-24T02:36:15;5.23;;;4.73;;
13941;SDS011;7043;51.630;7.254;2023-04-24T02:38:41;5.60;;;4.87;;
13941;SDS011;7043;51.630;7.254;2023-04-24T02:41:07;5.00;;;4.50;;
13941;SDS011;7043;51.630;7.254;2023-04-24T02:43:33;5.27;;;4.80;;
13941;SDS011;7043;51.630;7.254;2023-04-24T02:45:59;6.77;;;5.13;;
13941;SDS011;7043;51.630;7.254;2023-04-24T02:48:25;6.87;;;6.17;;
13941;SDS011;7043;51.630;7.254;2023-04-24T02:50:51;7.10;;;6.40;;
13941;SDS011;7043;51.630;7.254;2023-04-24T02:53:17;7.20;;;6.30;;
13941;SDS011;7043;51.630;7.254;2023-04-24T02:55:43;8.57;;;6.47;;
13941;SDS011;7043;51.630;7.254;2023-04-24T02:58:10;8.93;;;7.53;;
13941;SDS011;7043;51.630;7.254;2023-04-24T03:00:38;9.67;;;6.90;;
13941;SDS011;7043;51.630;7.254;2023-04-24T03:03:04;8.50;;;7.50;;
13941;SDS011;7043;51.630;7.254;2023-04-24T03:05:31;9.50;;;7.93;;
13941;SDS011;7043;51.630;7.254;2023-04-24T03:07:57;9.87;;;7.73;;
13941;SDS011;7043;51.630;7.254;2023-04-24T03:10:23;9.23;;;8.33;;
13941;SDS011;7043;51.630;7.254;2023-04-24T03:12:49;10.97;;;9.87;;
13941;SDS011;7043;51.630;7.254;2023-04-24T03:15:15;13.80;;;10.30;;
13941;SDS011;7043;51.630;7.254;2023-04-24T03:17:41;12.40;;;10.70;;
13941;SDS011;7043;51.630;7.254;2023-04-24T03:20:07;12.80;;;9.80;;
13941;SDS011;7043;51.630;7.254;2023-04-24T03:22:33;13.10;;;10.07;;
13941;SDS011;7043;51.630;7.254;2023-04-24T03:25:00;13.50;;;11.23;;
13941;SDS011;7043;51.630;7.254;2023-04-24T03:27:26;14.67;;;11.43;;
13941;SDS011;7043;51.630;7.254;2023-04-24T03:29:52;14.27;;;10.57;;
13941;SDS011;7043;51.630;7.254;2023-04-24T03:32:21;13.30;;;10.27;;
13941;SDS011;7043;51.630;7.254;2023-04-24T03:34:50;14.07;;;10.70;;
13941;SDS011;7043;51.630;7.254;2023-04-24T03:37:16;16.27;;;12.20;;
13941;SDS011;7043;51.630;7.254;2023-04-24T03:39:42;15.43;;;11.03;;
13941;SDS011;7043;51.630;7.254;2023-04-24T03:42:09;14.87;;;11.37;;
13941;SDS011;7043;51.630;7.254;2023-04-24T03:44:35;13.00;;;11.57;;
13941;SDS011;7043;51.630;7.254;2023-04-24T03:47:01;15.03;;;11.53;;
13941;SDS011;7043;51.630;7.254;2023-04-24T03:49:27;17.13;;;12.80;;
13941;SDS011;7043;51.630;7.254;2023-04-24T03:51:53;13.77;;;12.07;;
13941;SDS011;7043;51.630;7.254;2023-04-24T03:54:19;15.80;;;12.60;;
13941;SDS011;7043;51.630;7.254;2023-04-24T03:56:45;15.27;;;13.67;;
13941;SDS011;7043;51.630;7.254;2023-04-24T03:59:11;15.60;;;12.50;;
13941;SDS011;7043;51.630;7.254;2023-04-24T04:01:38;15.70;;;12.80;;
13941;SDS011;7043;51.630;7.254;2023-04-24T04:04:05;18.73;;;13.40;;
13941;SDS011;7043;51.630;7.254;2023-04-24T04:06:31;14.07;;;12.60;;
13941;SDS011;7043;51.630;7.254;2023-04-24T04:08:57;16.73;;;13.07;;
13941;SDS011;7043;51.630;7.254;2023-04-24T04:11:24;18.40;;;13.40;;
13941;SDS011;7043;51.630;7.254;2023-04-24T04:13:50;16.53;;;13.73;;
13941;SDS011;7043;51.630;7.254;2023-04-24T04:16:16;15.63;;;13.27;;
13941;SDS011;7043;51.630;7.254;2023-04-24T04:18:42;17.67;;;14.10;;
13941;SDS011;7043;51.630;7.254;2023-04-24T04:21:08;14.60;;;10.77;;
13941;SDS011;7043;51.630;7.254;2023-04-24T04:23:34;15.03;;;13.10;;
13941;SDS011;7043;51.630;7.254;2023-04-24T04:26:01;15.47;;;12.40;;
13941;SDS011;7043;51.630;7.254;2023-04-24T04:28:27;15.73;;;12.63;;
13941;SDS011;7043;51.630;7.254;2023-04-24T04:30:53;17.37;;;13.20;;
13941;SDS011;7043;51.630;7.254;2023-04-24T04:33:20;14.47;;;11.37;;
13941;SDS011;7043;51.630;7.254;2023-04-24T04:35:46;16.33;;;11.97;;
13941;SDS011;7043;51.630;7.254;2023-04-24T04:38:14;16.23;;;12.43;;
13941;SDS011;7043;51.630;7.254;2023-04-24T04:40:41;14.60;;;12.70;;
13941;SDS011;7043;51.630;7.254;2023-04-24T04:43:07;16.23;;;12.73;;
13941;SDS011;7043;51.630;7.254;2023-04-24T04:45:33;16.43;;;12.23;;
13941;SDS011;7043;51.630;7.254;2023-04-24T04:47:59;15.57;;;12.70;;
13941;SDS011;7043;51.630;7.254;2023-04-24T04:50:27;14.10;;;12.33;;
13941;SDS011;7043;51.630;7.254;2023-04-24T04:52:53;13.50;;;11.60;;
13941;SDS011;7043;51.630;7.254;2023-04-24T04:55:19;13.10;;;11.70;;
13941;SDS011;7043;51.630;7.254;2023-04-24T04:57:45;15.23;;;12.10;;
13941;SDS011;7043;51.630;7.254;2023-04-24T05:00:12;13.97;;;11.90;;
13941;SDS011;7043;51.630;7.254;2023-04-24T05:02:38;11.80;;;10.10;;
13941;SDS011;7043;51.630;7.254;2023-04-24T05:05:05;15.97;;;12.53;;
13941;SDS011;7043;51.630;7.254;2023-04-24T05:07:32;14.40;;;10.60;;
13941;SDS011;7043;51.630;7.254;2023-04-24T05:09:58;13.50;;;12.10;;
13941;SDS011;7043;51.630;7.254;2023-04-24T05:12:24;16.27;;;12.13;;
13941;SDS011;7043;51.630;7.254;2023-04-24T05:14:50;16.10;;;11.53;;
13941;SDS011;7043;51.630;7.254;2023-04-24T05:17:16;14.43;;;11.13;;
13941;SDS011;7043;51.630;7.254;2023-04-24T05:19:43;14.03;;;11.40;;
13941;SDS011;7043;51.630;7.254;2023-04-24T05:22:09;12.63;;;10.27;;
13941;SDS011;7043;51.630;7.254;2023-04-24T05:24:36;10.57;;;9.20;;
13941;SDS011;7043;51.630;7.254;2023-04-24T05:27:03;13.20;;;11.17;;
13941;SDS011;7043;51.630;7.254;2023-04-24T05:29:32;11.30;;;10.07;;
13941;SDS011;7043;51.630;7.254;2023-04-24T05:31:58;13.27;;;10.40;;
13941;SDS011;7043;51.630;7.254;2023-04-24T05:34:25;14.37;;;10.93;;
13941;SDS011;7043;51.630;7.254;2023-04-24T05:36:51;12.53;;;11.03;;
13941;SDS011;7043;51.630;7.254;2023-04-24T05:39:18;14.47;;;11.90;;
13941;SDS011;7043;51.630;7.254;2023-04-24T05:41:44;12.10;;;10.53;;
13941;SDS011;7043;51.630;7.254;2023-04-24T05:44:10;12.87;;;10.17;;
13941;SDS011;7043;51.630;7.254;2023-04-24T05:46:36;11.43;;;10.23;;
13941;SDS011;7043;51.630;7.254;2023-04-24T05:49:02;11.27;;;8.77;;
13941;SDS011;7043;51.630;7.254;2023-04-24T05:51:28;12.77;;;9.43;;
13941;SDS011;7043;51.630;7.254;2023-04-24T05:53:55;10.10;;;8.30;;
13941;SDS011;7043;51.630;7.254;2023-04-24T05:56:21;10.57;;;8.93;;
13941;SDS011;7043;51.630;7.254;2023-04-24T05:58:47;9.30;;;8.30;;
13941;SDS011;7043;51.630;7.254;2023-04-24T06:01:13;7.83;;;6.17;;
13941;SDS011;7043;51.630;7.254;2023-04-24T06:03:40;10.27;;;8.57;;
13941;SDS011;7043;51.630;7.254;2023-04-24T06:06:06;10.37;;;9.23;;
13941;SDS011;7043;51.630;7.254;2023-04-24T06:08:32;11.57;;;8.40;;
13941;SDS011;7043;51.630;7.254;2023-04-24T06:10:58;9.67;;;8.77;;
13941;SDS011;7043;51.630;7.254;2023-04-24T06:13:24;11.57;;;10.37;;
13941;SDS011;7043;51.630;7.254;2023-04-24T06:15:50;12.57;;;10.67;;
13941;SDS011;7043;51.630;7.254;2023-04-24T06:18:16;12.57;;;10.50;;
13941;SDS011;7043;51.630;7.254;2023-04-24T06:20:42;12.53;;;11.27;;
13941;SDS011;7043;51.630;7.254;2023-04-24T06:23:08;13.90;;;11.93;;
13941;SDS011;7043;51.630;7.254;2023-04-24T06:25:34;11.57;;;10.03;;
13941;SDS011;7043;51.630;7.254;2023-04-24T06:28:00;13.70;;;10.63;;
13941;SDS011;7043;51.630;7.254;2023-04-24T06:30:27;11.70;;;10.50;;
13941;SDS011;7043;51.630;7.254;2023-04-24T06:32:53;11.50;;;10.30;;
13941;SDS011;7043;51.630;7.254;2023-04-24T06:35:19;12.10;;;10.97;;
13941;SDS011;7043;51.630;7.254;2023-04-24T06:37:45;13.33;;;10.20;;
13941;SDS011;7043;51.630;7.254;2023-04-24T06:40:11;11.57;;;10.30;;
13941;SDS011;7043;51.630;7.254;2023-04-24T06:42:38;11.93;;;10.73;;
13941;SDS011;7043;51.630;7.254;2023-04-24T06:45:04;12.20;;;10.00;;
13941;SDS011;7043;51.630;7.254;2023-04-24T06:47:30;8.13;;;7.33;;
13941;SDS011;7043;51.630;7.254;2023-04-24T06:49:56;10.20;;;8.97;;
13941;SDS011;7043;51.630;7.254;2023-04-24T06:52:22;10.77;;;9.67;;
13941;SDS011;7043;51.630;7.254;2023-04-24T06:54:48;10.33;;;9.33;;
13941;SDS011;7043;51.630;7.254;2023-04-24T06:57:14;10.50;;;9.03;;
13941;SDS011;7043;51.630;7.254;2023-04-24T06:59:43;10.03;;;8.83;;
13941;SDS011;7043;51.630;7.254;2023-04-24T07:02:09;9.63;;;8.40;;
13941;SDS011;7043;51.630;7.254;2023-04-24T07:04:35;9.97;;;8.70;;
13941;SDS011;7043;51.630;7.254;2023-04-24T07:07:01;11.23;;;9.00;;
13941;SDS011;7043;51.630;7.254;2023-04-24T07:09:27;9.33;;;8.33;;
13941;SDS011;7043;51.630;7.254;2023-04-24T07:11:54;8.93;;;8.03;;
13941;SDS011;7043;51.630;7.254;2023-04-24T07:14:21;10.10;;;9.10;;
13941;SDS011;7043;51.630;7.254;2023-04-24T07:16:47;8.77;;;7.67;;
13941;SDS011;7043;51.630;7.254;2023-04-24T07:19:13;9.27;;;8.27;;
13941;SDS011;7043;51.630;7.254;2023-04-24T07:21:39;6.97;;;5.80;;
13941;SDS011;7043;51.630;7.254;2023-04-24T07:24:05;8.07;;;7.37;;
13941;SDS011;7043;51.630;7.254;2023-04-24T07:26:35;8.60;;;7.33;;
13941;SDS011;7043;51.630;7.254;2023-04-24T07:29:02;8.23;;;7.43;;
13941;SDS011;7043;51.630;7.254;2023-04-24T07:31:28;8.13;;;7.30;;
13941;SDS011;7043;51.630;7.254;2023-04-24T07:33:54;7.30;;;6.60;;
13941;SDS011;7043;51.630;7.254;2023-04-24T07:36:22;7.70;;;7.00;;
13941;SDS011;7043;51.630;7.254;2023-04-24T07:38:49;6.93;;;6.03;;
13941;SDS011;7043;51.630;7.254;2023-04-24T07:41:15;6.77;;;6.10;;
13941;SDS011;7043;51.630;7.254;2023-04-24T07:43:41;6.17;;;5.57;;
13941;SDS011;7043;51.630;7.254;2023-04-24T07:46:07;6.47;;;5.87;;
13941;SDS011;7043;51.630;7.254;2023-04-24T07:48:34;6.17;;;5.60;;
13941;SDS011;7043;51.630;7.254;2023-04-24T07:51:00;5.53;;;5.03;;
13941;SDS011;7043;51.630;7.254;2023-04-24T07:53:26;5.27;;;4.20;;
13941;SDS011;7043;51.630;7.254;2023-04-24T07:55:53;4.27;;;3.87;;
13941;SDS011;7043;51.630;7.254;2023-04-24T07:58:19;4.43;;;3.70;;
13941;SDS011;7043;51.630;7.254;2023-04-24T08:00:46;3.80;;;2.83;;
13941;SDS011;7043;51.630;7.254;2023-04-24T08:03:12;3.67;;;3.03;;
13941;SDS011;7043;51.630;7.254;2023-04-24T08:05:38;4.30;;;3.70;;
13941;SDS011;7043;51.630;7.254;2023-04-24T08:08:04;3.83;;;3.50;;
13941;SDS011;7043;51.630;7.254;2023-04-24T08:10:30;3.37;;;3.07;;
13941;SDS011;7043;51.630;7.254;2023-04-24T08:12:56;3.83;;;3.47;;
13941;SDS011;7043;51.630;7.254;2023-04-24T08:15:22;3.33;;;2.90;;
13941;SDS011;7043;51.630;7.254;2023-04-24T08:17:48;3.33;;;2.67;;
13941;SDS011;7043;51.630;7.254;2023-04-24T08:20:15;1.93;;;1.83;;
13941;SDS011;7043;51.630;7.254;2023-04-24T08:22:41;3.30;;;2.73;;
13941;SDS011;7043;51.630;7.254;2023-04-24T08:25:07;4.83;;;2.30;;
13941;SDS011;7043;51.630;7.254;2023-04-24T08:27:34;2.17;;;1.93;;
13941;SDS011;7043;51.630;7.254;2023-04-24T08:30:01;2.90;;;1.87;;
13941;SDS011;7043;51.630;7.254;2023-04-24T08:32:27;2.80;;;2.60;;
13941;SDS011;7043;51.630;7.254;2023-04-24T08:34:54;3.27;;;2.97;;
13941;SDS011;7043;51.630;7.254;2023-04-24T08:37:21;3.63;;;2.87;;
13941;SDS011;7043;51.630;7.254;2023-04-24T08:39:47;2.50;;;2.30;;
13941;SDS011;7043;51.630;7.254;2023-04-24T08:42:13;2.73;;;2.53;;
13941;SDS011;7043;51.630;7.254;2023-04-24T08:44:40;2.60;;;2.23;;
13941;SDS011;7043;51.630;7.254;2023-04-24T08:47:07;2.73;;;2.20;;
13941;SDS011;7043;51.630;7.254;2023-04-24T08:49:33;4.57;;;2.50;;
13941;SDS011;7043;51.630;7.254;2023-04-24T08:52:01;2.77;;;2.50;;
13941;SDS011;7043;51.630;7.254;2023-04-24T08:54:28;2.80;;;2.60;;
13941;SDS011;7043;51.630;7.254;2023-04-24T08:56:54;3.10;;;2.80;;
13941;SDS011;7043;51.630;7.254;2023-04-24T08:59:22;3.30;;;3.00;;
13941;SDS011;7043;51.630;7.254;2023-04-24T09:01:48;4.00;;;3.27;;
13941;SDS011;7043;51.630;7.254;2023-04-24T09:04:15;4.00;;;3.53;;
13941;SDS011;7043;51.630;7.254;2023-04-24T09:06:42;3.93;;;3.63;;
13941;SDS011;7043;51.630;7.254;2023-04-24T09:09:09;4.73;;;4.10;;
13941;SDS011;7043;51.630;7.254;2023-04-24T09:11:36;4.17;;;3.87;;
13941;SDS011;7043;51.630;7.254;2023-04-24T09:14:02;4.87;;;4.47;;
13941;SDS011;7043;51.630;7.254;2023-04-24T09:16:29;5.30;;;4.90;;
13941;SDS011;7043;51.630;7.254;2023-04-24T09:18:55;5.50;;;5.10;;
13941;SDS011;7043;51.630;7.254;2023-04-24T09:21:22;6.27;;;5.67;;
13941;SDS011;7043;51.630;7.254;2023-04-24T09:23:57;6.17;;;5.57;;
13941;SDS011;7043;51.630;7.254;2023-04-24T09:26:24;6.70;;;6.10;;
13941;SDS011;7043;51.630;7.254;2023-04-24T09:28:50;6.60;;;6.00;;
13941;SDS011;7043;51.630;7.254;2023-04-24T09:31:17;6.47;;;5.87;;
13941;SDS011;7043;51.630;7.254;2023-04-24T09:33:54;5.93;;;5.43;;
13941;SDS011;7043;51.630;7.254;2023-04-24T09:36:26;5.47;;;5.07;;
13941;SDS011;7043;51.630;7.254;2023-04-24T09:38:53;5.20;;;4.80;;
13941;SDS011;7043;51.630;7.254;2023-04-24T09:41:19;4.80;;;4.40;;
13941;SDS011;7043;51.630;7.254;2023-04-24T09:43:45;5.80;;;3.80;;
13941;SDS011;7043;51.630;7.254;2023-04-24T09:46:11;4.27;;;3.87;;
13941;SDS011;7043;51.630;7.254;2023-04-24T09:48:38;4.57;;;3.80;;
13941;SDS011;7043;51.630;7.254;2023-04-24T09:51:05;3.30;;;2.97;;
13941;SDS011;7043;51.630;7.254;2023-04-24T09:53:37;2.60;;;2.40;;
13941;SDS011;7043;51.630;7.254;2023-04-24T09:56:07;2.70;;;2.27;;
13941;SDS011;7043;51.630;7.254;2023-04-24T09:58:34;3.97;;;3.57;;
13941;SDS011;7043;51.630;7.254;2023-04-24T10:01:00;4.87;;;3.90;;
13941;SDS011;7043;51.630;7.254;2023-04-24T10:03:29;5.77;;;3.27;;
13941;SDS011;7043;51.630;7.254;2023-04-24T10:05:58;4.77;;;4.10;;
13941;SDS011;7043;51.630;7.254;2023-04-24T10:08:24;4.50;;;2.97;;
13941;SDS011;7043;51.630;7.254;2023-04-24T10:10:51;4.00;;;3.50;;
13941;SDS011;7043;51.630;7.254;2023-04-24T10:13:18;5.13;;;4.30;;
13941;SDS011;7043;51.630;7.254;2023-04-24T10:15:45;5.57;;;4.73;;
13941;SDS011;7043;51.630;7.254;2023-04-24T10:18:12;4.97;;;4.43;;
13941;SDS011;7043;51.630;7.254;2023-04-24T10:20:39;6.13;;;5.47;;
13941;SDS011;7043;51.630;7.254;2023-04-24T10:23:05;4.80;;;4.27;;
13941;SDS011;7043;51.630;7.254;2023-04-24T10:25:32;5.57;;;5.07;;
13941;SDS011;7043;51.630;7.254;2023-04-24T10:27:59;6.57;;;4.03;;
13941;SDS011;7043;51.630;7.254;2023-04-24T10:30:26;5.97;;;5.37;;
13941;SDS011;7043;51.630;7.254;2023-04-24T10:32:52;7.43;;;5.40;;
13941;SDS011;7043;51.630;7.254;2023-04-24T10:35:19;6.27;;;3.83;;
13941;SDS011;7043;51.630;7.254;2023-04-24T10:37:50;5.97;;;5.37;;
13941;SDS011;7043;51.630;7.254;2023-04-24T10:40:18;7.70;;;6.23;;
13941;SDS011;7043;51.630;7.254;2023-04-24T10:42:47;8.70;;;6.97;;
13941;SDS011;7043;51.630;7.254;2023-04-24T10:45:17;6.93;;;5.90;;
13941;SDS011;7043;51.630;7.254;2023-04-24T10:48:02;9.27;;;7.57;;
13941;SDS011;7043;51.630;7.254;2023-04-24T10:50:29;8.13;;;6.97;;
13941;SDS011;7043;51.630;7.254;2023-04-24T10:53:06;8.70;;;7.70;;
13941;SDS011;7043;51.630;7.254;2023-04-24T10:55:48;10.37;;;7.77;;
13941;SDS011;7043;51.630;7.254;2023-04-24T10:58:15;7.67;;;6.13;;
13941;SDS011;7043;51.630;7.254;2023-04-24T11:00:42;5.37;;;4.53;;
13941;SDS011;7043;51.630;7.254;2023-04-24T11:03:24;8.47;;;6.53;;
13941;SDS011;7043;51.630;7.254;2023-04-24T11:08:30;9.30;;;5.97;;
13941;SDS011;7043;51.630;7.254;2023-04-24T11:13:26;9.40;;;5.47;;
13941;SDS011;7043;51.630;7.254;2023-04-24T11:18:37;10.63;;;6.77;;
13941;SDS011;7043;51.630;7.254;2023-04-24T11:21:16;9.90;;;7.10;;
13941;SDS011;7043;51.630;7.254;2023-04-24T11:23:42;12.17;;;7.77;;
13941;SDS011;7043;51.630;7.254;2023-04-24T11:26:12;12.70;;;8.30;;
13941;SDS011;7043;51.630;7.254;2023-04-24T11:28:43;9.73;;;6.17;;
13941;SDS011;7043;51.630;7.254;2023-04-24T11:33:54;14.03;;;7.00;;
13941;SDS011;7043;51.630;7.254;2023-04-24T11:36:20;10.73;;;6.90;;
13941;SDS011;7043;51.630;7.254;2023-04-24T11:38:46;11.43;;;7.40;;
13941;SDS011;7043;51.630;7.254;2023-04-24T11:41:13;14.83;;;7.80;;
13941;SDS011;7043;51.630;7.254;2023-04-24T11:43:39;14.97;;;6.53;;
13941;SDS011;7043;51.630;7.254;2023-04-24T11:46:05;13.17;;;7.17;;
13941;SDS011;7043;51.630;7.254;2023-04-24T11:48:34;15.47;;;7.50;;
13941;SDS011;7043;51.630;7.254;2023-04-24T11:51:01;15.10;;;8.00;;
13941;SDS011;7043;51.630;7.254;2023-04-24T11:53:27;10.87;;;5.63;;
13941;SDS011;7043;51.630;7.254;2023-04-24T11:55:53;10.60;;;5.93;;
13941;SDS011;7043;51.630;7.254;2023-04-24T11:58:22;9.60;;;6.10;;
13941;SDS011;7043;51.630;7.254;2023-04-24T12:00:53;9.13;;;5.73;;
13941;SDS011;7043;51.630;7.254;2023-04-24T12:03:21;6.10;;;4.20;;
13941;SDS011;7043;51.630;7.254;2023-04-24T12:05:47;9.03;;;4.73;;
13941;SDS011;7043;51.630;7.254;2023-04-24T12:08:26;7.50;;;4.73;;
13941;SDS011;7043;51.630;7.254;2023-04-24T12:10:52;12.07;;;5.17;;
13941;SDS011;7043;51.630;7.254;2023-04-24T12:13:18;7.33;;;4.50;;
13941;SDS011;7043;51.630;7.254;2023-04-24T12:15:44;9.53;;;5.37;;
13941;SDS011;7043;51.630;7.254;2023-04-24T12:18:11;9.40;;;4.53;;
13941;SDS011;7043;51.630;7.254;2023-04-24T12:20:40;7.17;;;4.10;;
13941;SDS011;7043;51.630;7.254;2023-04-24T12:23:06;7.30;;;4.33;;
13941;SDS011;7043;51.630;7.254;2023-04-24T12:25:32;7.07;;;3.90;;
13941;SDS011;7043;51.630;7.254;2023-04-24T12:30:28;5.03;;;3.20;;
13941;SDS011;7043;51.630;7.254;2023-04-24T12:32:56;5.37;;;3.30;;
13941;SDS011;7043;51.630;7.254;2023-04-24T12:35:23;7.30;;;3.07;;
13941;SDS011;7043;51.630;7.254;2023-04-24T12:37:49;8.03;;;3.77;;
13941;SDS011;7043;51.630;7.254;2023-04-24T12:40:16;6.13;;;3.17;;
13941;SDS011;7043;51.630;7.254;2023-04-24T12:42:46;7.33;;;4.00;;
13941;SDS011;7043;51.630;7.254;2023-04-24T12:45:12;6.03;;;4.10;;
13941;SDS011;7043;51.630;7.254;2023-04-24T12:47:39;6.53;;;3.30;;
13941;SDS011;7043;51.630;7.254;2023-04-24T12:50:05;5.10;;;3.63;;
13941;SDS011;7043;51.630;7.254;2023-04-24T12:52:32;6.67;;;2.90;;
13941;SDS011;7043;51.630;7.254;2023-04-24T12:54:58;6.17;;;3.17;;
13941;SDS011;7043;51.630;7.254;2023-04-24T12:57:25;4.33;;;2.00;;
13941;SDS011;7043;51.630;7.254;2023-04-24T12:59:53;4.73;;;2.30;;
13941;SDS011;7043;51.630;7.254;2023-04-24T13:02:19;4.23;;;1.80;;
13941;SDS011;7043;51.630;7.254;2023-04-24T13:04:47;6.27;;;2.53;;
13941;SDS011;7043;51.630;7.254;2023-04-24T13:07:13;4.00;;;2.43;;
13941;SDS011;7043;51.630;7.254;2023-04-24T13:09:39;3.90;;;2.33;;
13941;SDS011;7043;51.630;7.254;2023-04-24T13:12:06;5.67;;;2.80;;
13941;SDS011;7043;51.630;7.254;2023-04-24T13:14:32;8.33;;;3.10;;
13941;SDS011;7043;51.630;7.254;2023-04-24T13:16:58;5.63;;;3.00;;
13941;SDS011;7043;51.630;7.254;2023-04-24T13:19:24;4.20;;;2.53;;
13941;SDS011;7043;51.630;7.254;2023-04-24T13:21:51;4.60;;;2.70;;
13941;SDS011;7043;51.630;7.254;2023-04-24T13:24:17;6.30;;;3.00;;
13941;SDS011;7043;51.630;7.254;2023-04-24T13:26:43;4.43;;;3.07;;
13941;SDS011;7043;51.630;7.254;2023-04-24T13:29:09;5.80;;;3.03;;
13941;SDS011;7043;51.630;7.254;2023-04-24T13:31:35;4.73;;;2.97;;
13941;SDS011;7043;51.630;7.254;2023-04-24T13:34:02;4.07;;;2.47;;
13941;SDS011;7043;51.630;7.254;2023-04-24T13:36:28;3.60;;;2.50;;
13941;SDS011;7043;51.630;7.254;2023-04-24T13:38:55;2.40;;;1.70;;
13941;SDS011;7043;51.630;7.254;2023-04-24T13:41:21;3.60;;;2.30;;
13941;SDS011;7043;51.630;7.254;2023-04-24T13:43:47;3.60;;;2.23;;
13941;SDS011;7043;51.630;7.254;2023-04-24T13:46:13;3.73;;;2.50;;
13941;SDS011;7043;51.630;7.254;2023-04-24T13:48:39;5.53;;;3.10;;
13941;SDS011;7043;51.630;7.254;2023-04-24T13:51:05;5.50;;;3.17;;
13941;SDS011;7043;51.630;7.254;2023-04-24T13:53:31;2.87;;;2.40;;
13941;SDS011;7043;51.630;7.254;2023-04-24T13:55:57;3.10;;;2.60;;
13941;SDS011;7043;51.630;7.254;2023-04-24T13:58:23;3.73;;;2.40;;
13941;SDS011;7043;51.630;7.254;2023-04-24T14:00:50;3.23;;;2.43;;
13941;SDS011;7043;51.630;7.254;2023-04-24T14:03:16;3.87;;;2.73;;
13941;SDS011;7043;51.630;7.254;2023-04-24T14:05:41;4.20;;;2.47;;
13941;SDS011;7043;51.630;7.254;2023-04-24T14:08:07;5.63;;;2.63;;
13941;SDS011;7043;51.630;7.254;2023-04-24T14:10:33;2.50;;;2.30;;
13941;SDS011;7043;51.630;7.254;2023-04-24T14:13:00;5.67;;;2.70;;
13941;SDS011;7043;51.630;7.254;2023-04-24T14:15:26;4.00;;;2.80;;
13941;SDS011;7043;51.630;7.254;2023-04-24T14:17:52;4.87;;;3.20;;
13941;SDS011;7043;51.630;7.254;2023-04-24T14:20:18;4.70;;;2.87;;
13941;SDS011;7043;51.630;7.254;2023-04-24T14:22:44;5.27;;;3.17;;
13941;SDS011;7043;51.630;7.254;2023-04-24T14:25:10;7.90;;;3.47;;
13941;SDS011;7043;51.630;7.254;2023-04-24T14:27:36;3.03;;;2.70;;
13941;SDS011;7043;51.630;7.254;2023-04-24T14:30:03;4.97;;;3.50;;
13941;SDS011;7043;51.630;7.254;2023-04-24T14:32:29;5.63;;;3.20;;
13941;SDS011;7043;51.630;7.254;2023-04-24T14:34:55;5.17;;;4.40;;
13941;SDS011;7043;51.630;7.254;2023-04-24T14:37:21;4.30;;;3.00;;
13941;SDS011;7043;51.630;7.254;2023-04-24T14:39:47;4.37;;;3.20;;
13941;SDS011;7043;51.630;7.254;2023-04-24T14:42:13;5.53;;;3.23;;
13941;SDS011;7043;51.630;7.254;2023-04-24T14:44:41;6.83;;;3.47;;
13941;SDS011;7043;51.630;7.254;2023-04-24T14:47:07;5.97;;;3.83;;
13941;SDS011;7043;51.630;7.254;2023-04-24T14:49:33;5.37;;;3.40;;
13941;SDS011;7043;51.630;7.254;2023-04-24T14:51:59;6.27;;;4.80;;
13941;SDS011;7043;51.630;7.254;2023-04-24T14:54:27;6.10;;;4.77;;
13941;SDS011;7043;51.630;7.254;2023-04-24T14:56:54;5.17;;;3.90;;
13941;SDS011;7043;51.630;7.254;2023-04-24T14:59:21;3.80;;;3.37;;
13941;SDS011;7043;51.630;7.254;2023-04-24T15:01:47;6.50;;;3.83;;
13941;SDS011;7043;51.630;7.254;2023-04-24T15:04:16;4.37;;;3.53;;